createdAt,value
2023-01-15T00:00:59.678Z,100975.44
2023-01-15T00:04:04.957Z,100978.88
2023-01-15T00:07:07.665Z,100985.63
2023-01-15T00:10:11.273Z,100980.09
2023-01-15T00:13:14.703Z,100969.47
2023-01-15T00:16:21.287Z,100966.03
2023-01-15T00:19:23.927Z,100966.88
2023-01-15T00:22:26.889Z,100959.19
2023-01-15T00:25:48.029Z,100958.53
2023-01-15T00:28:50.719Z,100954.53
2023-01-15T00:32:03.317Z,100954.38
2023-01-15T00:35:06.903Z,100952.06
2023-01-15T00:38:09.537Z,100954.75
2023-01-15T00:41:13.709Z,100946.53
2023-01-15T00:44:16.598Z,100944.56
2023-01-15T00:47:19.607Z,100943.16
2023-01-15T00:50:25.150Z,100940.81
2023-01-15T00:53:28.053Z,100935.56
2023-01-15T00:56:30.896Z,100931.69
2023-01-15T00:59:33.670Z,100924.97
2023-01-15T01:02:36.388Z,100926.31
2023-01-15T01:05:39.168Z,100923.41
2023-01-15T01:08:41.865Z,100927.59
2023-01-15T01:11:44.945Z,100914.91
2023-01-15T01:14:48.046Z,100913.69
2023-01-15T01:17:51.894Z,100915.97
2023-01-15T01:20:55.006Z,100908.31
2023-01-15T01:24:01.443Z,100916.41
2023-01-15T01:27:04.377Z,100914.88
2023-01-15T01:30:07.923Z,100911.44
2023-01-15T01:33:11.373Z,100910.41
2023-01-15T01:36:14.073Z,100913.91
2023-01-15T01:39:19.842Z,100916.72
2023-01-15T01:42:23.011Z,100921.13
2023-01-15T01:45:29.476Z,100904.53
2023-01-15T01:48:34.608Z,100910.16
2023-01-15T01:51:51.103Z,100912.28
2023-01-15T01:54:54.395Z,100914.56
2023-01-15T01:58:00.695Z,100912.13
2023-01-15T02:01:06.041Z,100909.31
2023-01-15T02:04:10.853Z,100905.81
2023-01-15T02:07:15.480Z,100901.41
2023-01-15T02:10:18.778Z,100896.19
2023-01-15T02:13:36.209Z,100897.91
2023-01-15T02:16:56.927Z,100901.34
2023-01-15T02:20:12.729Z,100898.72
2023-01-15T02:23:32.224Z,100890.69
2023-01-15T02:27:07.355Z,100891.13
2023-01-15T02:30:21.173Z,100885.84
2023-01-15T02:34:01.649Z,100880.81
2023-01-15T02:37:09.420Z,100871.56
2023-01-15T02:40:14.347Z,100874.19
2023-01-15T02:43:20.435Z,100871.56
2023-01-15T02:46:29.162Z,100859.19
2023-01-15T02:49:33.384Z,100854.44
2023-01-15T02:52:47.359Z,100860.50
2023-01-15T02:55:57.665Z,100862.00
2023-01-15T02:59:10.925Z,100855.38
2023-01-15T03:02:21.056Z,100846.19
2023-01-15T03:05:31.251Z,100847.31
2023-01-15T03:08:34.428Z,100847.28
2023-01-15T03:11:44.612Z,100834.19
2023-01-15T03:15:08.590Z,100833.09
2023-01-15T03:18:15.561Z,100829.66
2023-01-15T03:21:27.608Z,100825.72
2023-01-15T03:24:42.595Z,100835.25
2023-01-15T03:27:45.396Z,100836.25
2023-01-15T03:30:52.122Z,100844.97
2023-01-15T03:33:55.550Z,100843.41
2023-01-15T03:36:59.740Z,100836.53
2023-01-15T03:40:04.519Z,100835.50
2023-01-15T03:43:34.066Z,100834.25
2023-01-15T03:47:07.573Z,100834.25
2023-01-15T03:50:27.744Z,100842.09
2023-01-15T03:53:39.327Z,100831.25
2023-01-15T03:56:58.470Z,100819.13
2023-01-15T04:00:10.083Z,100815.22
2023-01-15T04:03:22.720Z,100809.91
2023-01-15T04:06:29.264Z,100816.69
2023-01-15T04:09:38.091Z,100800.63
2023-01-15T04:12:42.235Z,100806.88
2023-01-15T04:15:46.707Z,100794.22
2023-01-15T04:18:50.217Z,100790.09
2023-01-15T04:21:54.980Z,100780.25
2023-01-15T04:24:57.446Z,100778.69
2023-01-15T04:28:00.685Z,100780.53
2023-01-15T04:31:04.354Z,100782.84
2023-01-15T04:34:07.475Z,100790.22
2023-01-15T04:37:10.134Z,100788.88
2023-01-15T04:40:33.501Z,100795.19
2023-01-15T04:43:55.013Z,100798.59
2023-01-15T04:47:00.091Z,100795.91
2023-01-15T04:50:02.832Z,100808.28
2023-01-15T04:53:06.653Z,100801.19
2023-01-15T04:56:09.203Z,100808.00
2023-01-15T04:59:12.551Z,100806.94
2023-01-15T05:02:15.775Z,100808.03
2023-01-15T05:05:19.205Z,100811.16
2023-01-15T05:08:22.106Z,100801.47
2023-01-15T05:11:24.899Z,100814.09
2023-01-15T05:14:27.793Z,100818.38
2023-01-15T05:17:33.015Z,100802.47
2023-01-15T05:20:38.507Z,100798.78
2023-01-15T05:23:41.440Z,100798.53
2023-01-15T05:26:44.360Z,100809.31
2023-01-15T05:29:48.155Z,100801.44
2023-01-15T05:32:51.829Z,100785.88
2023-01-15T05:35:54.739Z,100770.84
2023-01-15T05:39:01.944Z,100772.19
2023-01-15T05:42:05.106Z,100778.44
2023-01-15T05:45:08.271Z,100767.41
2023-01-15T05:48:11.825Z,100770.78
2023-01-15T05:51:15.244Z,100777.66
2023-01-15T05:54:20.894Z,100780.22
2023-01-15T05:57:23.367Z,100771.53
2023-01-15T06:00:30.411Z,100775.81
2023-01-15T06:03:33.062Z,100774.72
2023-01-15T06:06:36.730Z,100772.88
2023-01-15T06:09:39.414Z,100774.72
2023-01-15T06:12:42.423Z,100768.22
2023-01-15T06:15:45.215Z,100765.28
2023-01-15T06:18:48.364Z,100771.34
2023-01-15T06:21:51.916Z,100778.16
2023-01-15T06:24:55.059Z,100776.31
2023-01-15T06:27:58.491Z,100772.63
2023-01-15T06:31:06.318Z,100763.69
2023-01-15T06:34:08.848Z,100763.84
2023-01-15T06:37:12.229Z,100768.09
2023-01-15T06:40:29.179Z,100761.56
2023-01-15T06:43:50.479Z,100754.69
2023-01-15T06:47:11.677Z,100759.81
2023-01-15T06:50:16.147Z,100764.84
2023-01-15T06:53:19.605Z,100756.34
2023-01-15T06:56:22.521Z,100755.53
2023-01-15T06:59:25.090Z,100765.97
2023-01-15T07:02:28.292Z,100780.41
2023-01-15T07:05:30.970Z,100771.72
2023-01-15T07:08:34.630Z,100776.72
2023-01-15T07:11:49.468Z,100775.63
2023-01-15T07:14:52.790Z,100767.47
2023-01-15T07:17:56.302Z,100761.09
2023-01-15T07:20:59.811Z,100769.22
2023-01-15T07:24:02.565Z,100768.13
2023-01-15T07:27:06.376Z,100760.22
2023-01-15T07:30:09.537Z,100759.75
2023-01-15T07:33:14.962Z,100757.59
2023-01-15T07:36:17.480Z,100749.53
2023-01-15T07:39:20.864Z,100747.97
2023-01-15T07:42:42.304Z,100744.28
2023-01-15T07:46:07.933Z,100744.13
2023-01-15T07:49:30.192Z,100741.50
2023-01-15T07:52:33.553Z,100740.78
2023-01-15T07:55:36.466Z,100737.63
2023-01-15T07:58:39.203Z,100741.56
2023-01-15T08:01:42.063Z,100747.84
2023-01-15T08:04:45.611Z,100737.09
2023-01-15T08:07:49.270Z,100738.31
2023-01-15T08:11:12.087Z,100736.47
2023-01-15T08:14:33.713Z,100733.66
2023-01-15T08:17:37.834Z,100731.84
2023-01-15T08:20:47.424Z,100725.28
2023-01-15T08:23:51.437Z,100723.72
2023-01-15T08:26:54.427Z,100722.44
2023-01-15T08:29:57.653Z,100718.75
2023-01-15T08:33:03.098Z,100708.34
2023-01-15T08:36:06.387Z,100711.78
2023-01-15T08:39:08.891Z,100713.94
2023-01-15T08:42:12.058Z,100708.38
2023-01-15T08:45:15.040Z,100717.66
2023-01-15T08:48:17.699Z,100730.59
2023-01-15T08:51:20.961Z,100732.72
2023-01-15T08:54:26.979Z,100720.53
2023-01-15T08:57:49.730Z,100707.44
2023-01-15T09:01:16.262Z,100715.41
2023-01-15T09:04:20.890Z,100715.75
2023-01-15T09:07:23.948Z,100706.53
2023-01-15T09:10:26.584Z,100704.22
2023-01-15T09:13:30.484Z,100704.53
2023-01-15T09:16:33.751Z,100709.53
2023-01-15T09:19:37.318Z,100713.47
2023-01-15T09:22:40.420Z,100706.66
2023-01-15T09:26:01.567Z,100703.38
2023-01-15T09:29:05.635Z,100696.25
2023-01-15T09:32:10.214Z,100692.63
2023-01-15T09:35:12.888Z,100681.56
2023-01-15T09:38:17.365Z,100672.06
2023-01-15T09:41:39.856Z,100662.66
2023-01-15T09:45:01.690Z,100656.84
2023-01-15T09:48:18.230Z,100642.34
2023-01-15T09:51:47.867Z,100638.94
2023-01-15T09:54:53.223Z,100635.00
2023-01-15T09:57:59.468Z,100631.03
2023-01-15T10:01:03.388Z,100621.28
2023-01-15T10:04:38.181Z,100619.41
2023-01-15T10:07:49.617Z,100613.38
2023-01-15T10:10:57.891Z,100608.88
2023-01-15T10:14:11.159Z,100601.53
2023-01-15T10:17:22.779Z,100598.06
2023-01-15T10:20:40.340Z,100593.09
2023-01-15T10:23:56.288Z,100601.00
2023-01-15T10:27:00.049Z,100599.94
2023-01-15T10:30:18.340Z,100595.75
2023-01-15T10:33:26.836Z,100587.81
2023-01-15T10:36:37.111Z,100589.94
2023-01-15T10:40:03.365Z,100576.78
2023-01-15T10:43:18.457Z,100570.97
2023-01-15T10:46:27.280Z,100573.06
2023-01-15T10:49:30.964Z,100568.63
2023-01-15T10:52:36.999Z,100558.59
2023-01-15T10:55:50.356Z,100565.44
2023-01-15T10:59:05.197Z,100558.06
2023-01-15T11:02:29.828Z,100556.47
2023-01-15T11:05:33.615Z,100540.94
2023-01-15T11:09:07.327Z,100535.66
2023-01-15T11:12:20.379Z,100529.84
2023-01-15T11:15:44.368Z,100527.47
2023-01-15T11:19:05.836Z,100515.59
2023-01-15T11:22:14.211Z,100520.88
2023-01-15T11:25:29.874Z,100509.00
2023-01-15T11:28:36.628Z,100495.53
2023-01-15T11:31:40.832Z,100492.91
2023-01-15T11:34:53.632Z,100486.56
2023-01-15T11:38:07.285Z,100483.09
2023-01-15T11:41:54.197Z,100477.59
2023-01-15T11:45:16.512Z,100465.69
2023-01-15T11:48:41.233Z,100467.53
2023-01-15T11:51:48.845Z,100463.84
2023-01-15T11:54:54.519Z,100460.19
2023-01-15T11:57:58.482Z,100455.69
2023-01-15T12:01:01.787Z,100458.81
2023-01-15T12:04:08.217Z,100459.06
2023-01-15T12:07:14.246Z,100449.84
2023-01-15T12:10:53.601Z,100449.06
2023-01-15T12:14:31.685Z,100437.13
2023-01-15T12:18:17.012Z,100418.66
2023-01-15T12:21:45.165Z,100400.44
2023-01-15T12:25:15.142Z,100398.28
2023-01-15T12:28:32.469Z,100399.09
2023-01-15T12:31:43.927Z,100394.06
2023-01-15T12:34:56.615Z,100378.41
2023-01-15T12:38:13.195Z,100366.44
2023-01-15T12:41:26.372Z,100370.59
2023-01-15T12:44:47.706Z,100369.59
2023-01-15T12:47:58.698Z,100366.75
2023-01-15T12:51:04.600Z,100358.06
2023-01-15T12:54:15.413Z,100342.22
2023-01-15T12:57:42.974Z,100347.75
2023-01-15T13:00:46.278Z,100343.28
2023-01-15T13:04:04.404Z,100332.97
2023-01-15T13:07:33.963Z,100343.56
2023-01-15T13:10:40.762Z,100346.47
2023-01-15T13:13:58.397Z,100338.00
2023-01-15T13:17:08.913Z,100334.00
2023-01-15T13:20:43.868Z,100321.31
2023-01-15T13:23:48.842Z,100323.13
2023-01-15T13:27:09.948Z,100320.03
2023-01-15T13:30:43.429Z,100318.47
2023-01-15T13:33:56.252Z,100317.13
2023-01-15T13:37:05.480Z,100314.75
2023-01-15T13:40:23.853Z,100325.31
2023-01-15T13:43:42.887Z,100302.56
2023-01-15T13:46:48.681Z,100307.63
2023-01-15T13:49:56.560Z,100319.25
2023-01-15T13:53:25.755Z,100311.88
2023-01-15T13:56:32.289Z,100304.72
2023-01-15T13:59:41.221Z,100310.53
2023-01-15T14:02:52.672Z,100300.56
2023-01-15T14:05:58.432Z,100292.34
2023-01-15T14:09:00.855Z,100291.88
2023-01-15T14:12:27.868Z,100299.00
2023-01-15T14:15:57.010Z,100296.13
2023-01-15T14:19:21.952Z,100297.44
2023-01-15T14:22:44.023Z,100287.94
2023-01-15T14:25:55.027Z,100277.94
2023-01-15T14:29:26.157Z,100280.31
2023-01-15T14:32:57.219Z,100272.66
2023-01-15T14:36:16.473Z,100272.41
2023-01-15T14:39:25.181Z,100269.00
2023-01-15T14:42:56.681Z,100261.94
2023-01-15T14:46:11.500Z,100254.81
2023-01-15T14:49:29.339Z,100259.03
2023-01-15T14:52:32.792Z,100250.84
2023-01-15T14:55:41.102Z,100251.09
2023-01-15T14:59:36.076Z,100241.59
2023-01-15T15:02:43.866Z,100253.66
2023-01-15T15:05:47.744Z,100241.19
2023-01-15T15:08:53.028Z,100242.69
2023-01-15T15:12:20.942Z,100233.78
2023-01-15T15:15:26.807Z,100237.75
2023-01-15T15:18:42.556Z,100232.41
2023-01-15T15:21:47.583Z,100231.94
2023-01-15T15:24:54.288Z,100241.00
2023-01-15T15:28:05.117Z,100244.72
2023-01-15T15:31:10.566Z,100230.66
2023-01-15T15:34:23.253Z,100224.59
2023-01-15T15:37:28.451Z,100218.22
2023-01-15T15:40:36.458Z,100218.75
2023-01-15T15:44:16.275Z,100212.16
2023-01-15T15:47:43.177Z,100203.47
2023-01-15T15:50:48.176Z,100196.09
2023-01-15T15:53:50.875Z,100193.47
2023-01-15T15:56:57.562Z,100195.56
2023-01-15T16:00:01.280Z,100206.72
2023-01-15T16:03:18.290Z,100202.78
2023-01-15T16:06:27.109Z,100198.03
2023-01-15T16:09:30.319Z,100190.88
2023-01-15T16:12:40.805Z,100189.63
2023-01-15T16:15:44.264Z,100189.50
2023-01-15T16:18:56.051Z,100180.84
2023-01-15T16:21:58.823Z,100175.31
2023-01-15T16:25:02.470Z,100177.72
2023-01-15T16:28:05.877Z,100176.22
2023-01-15T16:31:10.118Z,100176.78
2023-01-15T16:34:22.537Z,100178.88
2023-01-15T16:37:30.650Z,100176.66
2023-01-15T16:40:37.419Z,100173.78
2023-01-15T16:44:01.498Z,100171.75
2023-01-15T16:47:05.667Z,100168.59
2023-01-15T16:50:23.702Z,100170.22
2023-01-15T16:53:29.729Z,100176.09
2023-01-15T16:56:36.109Z,100174.69
2023-01-15T16:59:44.849Z,100167.56
2023-01-15T17:02:47.751Z,100171.53
2023-01-15T17:05:54.479Z,100171.53
2023-01-15T17:08:58.947Z,100168.84
2023-01-15T17:12:35.659Z,100168.84
2023-01-15T17:15:40.730Z,100159.59
2023-01-15T17:18:44.630Z,100162.78
2023-01-15T17:21:47.639Z,100163.81
2023-01-15T17:24:52.772Z,100153.56
2023-01-15T17:27:56.053Z,100158.28
2023-01-15T17:31:01.669Z,100157.25
2023-01-15T17:34:04.587Z,100157.25
2023-01-15T17:37:07.768Z,100158.81
2023-01-15T17:40:11.436Z,100155.63
2023-01-15T17:43:16.332Z,100150.06
2023-01-15T17:46:19.257Z,100137.16
2023-01-15T17:49:22.979Z,100146.88
2023-01-15T17:52:25.757Z,100139.22
2023-01-15T17:55:47.259Z,100130.34
2023-01-15T17:59:11.055Z,100131.81
2023-01-15T18:02:34.676Z,100132.34
2023-01-15T18:05:38.356Z,100131.91
2023-01-15T18:08:44.400Z,100127.56
2023-01-15T18:11:47.412Z,100123.31
2023-01-15T18:14:50.480Z,100121.25
2023-01-15T18:17:53.313Z,100123.88
2023-01-15T18:20:56.265Z,100114.88
2023-01-15T18:23:59.952Z,100108.50
2023-01-15T18:27:03.004Z,100109.84
2023-01-15T18:30:06.550Z,100107.22
2023-01-15T18:33:09.706Z,100099.84
2023-01-15T18:36:14.120Z,100099.22
2023-01-15T18:39:17.025Z,100103.78
2023-01-15T18:42:38.074Z,100107.25
2023-01-15T18:45:59.965Z,100108.59
2023-01-15T18:49:02.678Z,100107.81
2023-01-15T18:52:24.988Z,100099.44
2023-01-15T18:55:28.134Z,100099.97
2023-01-15T18:58:31.417Z,100098.63
2023-01-15T19:01:34.418Z,100095.22
2023-01-15T19:04:38.478Z,100096.00
2023-01-15T19:07:45.464Z,100089.94
2023-01-15T19:10:48.407Z,100083.09
2023-01-15T19:14:11.983Z,100083.91
2023-01-15T19:17:40.127Z,100081.78
2023-01-15T19:20:43.165Z,100082.84
2023-01-15T19:23:47.440Z,100075.19
2023-01-15T19:26:50.807Z,100070.72
2023-01-15T19:29:53.644Z,100065.53
2023-01-15T19:32:56.736Z,100067.03
2023-01-15T19:35:59.934Z,100062.88
2023-01-15T19:39:03.253Z,100056.06
2023-01-15T19:42:24.897Z,100061.59
2023-01-15T19:45:46.421Z,100054.47
2023-01-15T19:49:07.750Z,100058.72
2023-01-15T19:52:29.056Z,100051.38
2023-01-15T19:55:33.402Z,100052.94
2023-01-15T19:58:37.184Z,100045.03
2023-01-15T20:01:40.671Z,100041.66
2023-01-15T20:04:45.719Z,100040.91
2023-01-15T20:07:48.839Z,100033.28
2023-01-15T20:10:51.740Z,100031.59
2023-01-15T20:13:54.963Z,100037.13
2023-01-15T20:16:57.348Z,100038.97
2023-01-15T20:20:00.344Z,100039.44
2023-01-15T20:23:03.008Z,100045.28
2023-01-15T20:26:08.219Z,100039.31
2023-01-15T20:29:11.237Z,100038.47
2023-01-15T20:32:14.628Z,100033.44
2023-01-15T20:35:23.641Z,100024.28
2023-01-15T20:38:26.686Z,100025.09
2023-01-15T20:41:48.048Z,100010.88
2023-01-15T20:44:53.600Z,100008.25
2023-01-15T20:48:11.643Z,100018.28
2023-01-15T20:51:14.779Z,100023.88
2023-01-15T20:54:17.798Z,100012.75
2023-01-15T20:57:20.503Z,100010.38
2023-01-15T21:00:24.064Z,100010.13
2023-01-15T21:03:27.303Z,100001.22
2023-01-15T21:06:30.051Z,99997.28
2023-01-15T21:09:32.849Z,99996.78
2023-01-15T21:12:36.397Z,99999.94
2023-01-15T21:15:39.499Z,100002.88
2023-01-15T21:18:45.050Z,99989.47
2023-01-15T21:21:48.017Z,99982.38
2023-01-15T21:24:51.601Z,99987.09
2023-01-15T21:27:54.623Z,99991.59
2023-01-15T21:30:57.963Z,99995.25
2023-01-15T21:34:00.849Z,99989.97
2023-01-15T21:37:03.330Z,99987.28
2023-01-15T21:40:06.676Z,99979.09
2023-01-15T21:43:48.071Z,99979.13
2023-01-15T21:46:50.848Z,99974.91
2023-01-15T21:49:53.506Z,99978.84
2023-01-15T21:52:56.282Z,99979.13
2023-01-15T21:55:58.745Z,99973.84
2023-01-15T21:59:01.497Z,99978.59
2023-01-15T22:02:05.022Z,99965.69
2023-01-15T22:05:08.726Z,99964.13
2023-01-15T22:08:11.552Z,99965.47
2023-01-15T22:11:14.221Z,99953.81
2023-01-15T22:14:17.909Z,99961.53
2023-01-15T22:17:21.172Z,99953.56
2023-01-15T22:20:23.766Z,99954.94
2023-01-15T22:23:27.369Z,99947.81
2023-01-15T22:26:30.838Z,99946.72
2023-01-15T22:29:38.315Z,99947.25
2023-01-15T22:32:40.871Z,99951.69
2023-01-15T22:35:43.717Z,99937.47
2023-01-15T22:38:47.187Z,99939.31
2023-01-15T22:42:08.599Z,99928.78
2023-01-15T22:45:11.353Z,99930.91
2023-01-15T22:48:14.025Z,99928.78
2023-01-15T22:51:16.764Z,99936.91
2023-01-15T22:54:19.942Z,99935.84
2023-01-15T22:57:23.488Z,99929.25
2023-01-15T23:00:26.320Z,99921.13
2023-01-15T23:03:29.114Z,99921.09
2023-01-15T23:06:31.788Z,99913.22
2023-01-15T23:09:35.228Z,99908.97
2023-01-15T23:12:39.640Z,99910.56
2023-01-15T23:15:42.497Z,99912.97
2023-01-15T23:18:46.165Z,99909.75
2023-01-15T23:21:48.553Z,99905.06
2023-01-15T23:24:51.347Z,99900.31
2023-01-15T23:27:53.768Z,99888.19
2023-01-15T23:30:56.551Z,99882.97
2023-01-15T23:33:59.510Z,99880.81
2023-01-15T23:37:03.339Z,99884.50
2023-01-15T23:40:07.164Z,99883.38
2023-01-15T23:43:33.020Z,99885.03
2023-01-15T23:46:35.892Z,99881.59
2023-01-15T23:49:39.483Z,99876.84
2023-01-15T23:52:41.884Z,99881.31
2023-01-15T23:55:44.765Z,99890.03
2023-01-15T23:58:47.704Z,99886.44
